createdAt,value
2023-03-22T00:01:50.121Z,97990.06
2023-03-22T00:03:53.453Z,97997.28
2023-03-22T00:05:59.385Z,97991.22
2023-03-22T00:08:05.663Z,97989.53
2023-03-22T00:10:09.594Z,97992.16
2023-03-22T00:12:13.982Z,97986.34
2023-03-22T00:14:17.057Z,97981.34
2023-03-22T00:16:20.439Z,97982.28
2023-03-22T00:18:23.483Z,97975.81
2023-03-22T00:20:26.517Z,97978.13
2023-03-22T00:22:29.556Z,97979.09
2023-03-22T00:24:32.819Z,97972.31
2023-03-22T00:26:35.893Z,97964.00
2023-03-22T00:28:41.050Z,97961.13
2023-03-22T00:30:44.827Z,97958.72
2023-03-22T00:32:48.143Z,97966.69
2023-03-22T00:34:51.351Z,97963.00
2023-03-22T00:36:56.245Z,97967.16
2023-03-22T00:39:01.931Z,97960.72
2023-03-22T00:41:09.372Z,97952.72
2023-03-22T00:43:13.331Z,97954.84
2023-03-22T00:45:17.937Z,97948.59
2023-03-22T00:47:21.060Z,97948.00
2023-03-22T00:49:25.530Z,97946.44
2023-03-22T00:51:28.636Z,97948.31
2023-03-22T00:53:32.910Z,97946.88
2023-03-22T00:55:36.030Z,97940.22
2023-03-22T00:57:39.316Z,97934.25
2023-03-22T00:59:43.045Z,97937.09
2023-03-22T01:01:47.503Z,97933.75
2023-03-22T01:03:51.032Z,97940.03
2023-03-22T01:05:56.384Z,97934.19
2023-03-22T01:08:02.729Z,97930.03
2023-03-22T01:10:06.771Z,97929.41
2023-03-22T01:12:09.814Z,97929.63
2023-03-22T01:14:13.910Z,97925.69
2023-03-22T01:16:18.249Z,97923.91
2023-03-22T01:18:22.772Z,97921.41
2023-03-22T01:20:25.993Z,97917.34
2023-03-22T01:22:29.069Z,97919.13
2023-03-22T01:24:32.423Z,97916.75
2023-03-22T01:26:35.738Z,97918.63
2023-03-22T01:28:40.624Z,97910.94
2023-03-22T01:30:43.879Z,97907.69
2023-03-22T01:32:46.894Z,97898.44
2023-03-22T01:34:52.237Z,97897.69
2023-03-22T01:36:56.378Z,97903.84
2023-03-22T01:38:59.548Z,97904.06
2023-03-22T01:41:02.628Z,97906.88
2023-03-22T01:43:13.186Z,97895.75
2023-03-22T01:45:38.152Z,97902.81
2023-03-22T01:47:43.101Z,97897.81
2023-03-22T01:49:46.307Z,97894.59
2023-03-22T01:51:52.822Z,97898.13
2023-03-22T01:54:15.165Z,97895.03
2023-03-22T01:56:19.562Z,97895.22
2023-03-22T01:58:22.726Z,97892.72
2023-03-22T02:00:31.017Z,97899.78
2023-03-22T02:02:54.378Z,97888.72
2023-03-22T02:05:04.257Z,97892.41
2023-03-22T02:07:15.237Z,97888.22
2023-03-22T02:09:22.042Z,97887.63
2023-03-22T02:11:29.648Z,97886.16
2023-03-22T02:14:01.196Z,97883.66
2023-03-22T02:16:31.179Z,97881.56
2023-03-22T02:18:49.646Z,97880.22
2023-03-22T02:21:17.772Z,97882.19
2023-03-22T02:23:49.894Z,97873.16
2023-03-22T02:26:14.101Z,97873.44
2023-03-22T02:28:25.888Z,97865.75
2023-03-22T02:31:19.901Z,97875.31
2023-03-22T02:33:50.542Z,97873.00
2023-03-22T02:36:16.566Z,97864.38
2023-03-22T02:38:58.668Z,97864.47
2023-03-22T02:41:10.427Z,97861.97
2023-03-22T02:43:17.355Z,97863.16
2023-03-22T02:45:29.113Z,97859.06
2023-03-22T02:47:39.519Z,97855.09
2023-03-22T02:49:47.752Z,97863.75
2023-03-22T02:51:55.037Z,97863.84
2023-03-22T02:54:04.863Z,97860.50
2023-03-22T02:56:09.771Z,97864.06
2023-03-22T02:58:15.659Z,97860.72
2023-03-22T03:00:20.921Z,97855.72
2023-03-22T03:02:24.913Z,97859.47
2023-03-22T03:04:31.100Z,97853.41
2023-03-22T03:06:39.911Z,97857.16
2023-03-22T03:08:44.088Z,97859.88
2023-03-22T03:10:49.094Z,97854.13
2023-03-22T03:12:52.431Z,97861.91
2023-03-22T03:14:55.818Z,97856.81
2023-03-22T03:17:08.685Z,97861.91
2023-03-22T03:19:20.284Z,97856.28
2023-03-22T03:21:32.730Z,97855.78
2023-03-22T03:23:47.076Z,97854.94
2023-03-22T03:25:58.921Z,97862.94
2023-03-22T03:28:06.437Z,97860.44
2023-03-22T03:30:13.332Z,97857.94
2023-03-22T03:32:25.561Z,97868.53
2023-03-22T03:34:31.474Z,97865.94
2023-03-22T03:36:37.850Z,97866.97
2023-03-22T03:38:45.618Z,97868.09
2023-03-22T03:40:51.730Z,97865.50
2023-03-22T03:42:57.155Z,97864.47
2023-03-22T03:45:00.998Z,97868.94
2023-03-22T03:47:04.789Z,97871.63
2023-03-22T03:49:08.925Z,97865.69
2023-03-22T03:51:12.975Z,97872.66
2023-03-22T03:53:16.418Z,97867.84
2023-03-22T03:55:19.659Z,97869.94
2023-03-22T03:57:24.043Z,97868.44
2023-03-22T03:59:27.150Z,97867.72
2023-03-22T04:01:31.155Z,97866.03
2023-03-22T04:03:50.584Z,97878.22
2023-03-22T04:06:09.956Z,97878.31
2023-03-22T04:08:16.934Z,97876.91
2023-03-22T04:10:20.062Z,97884.81
2023-03-22T04:12:24.628Z,97882.31
2023-03-22T04:14:46.227Z,97872.19
2023-03-22T04:16:57.572Z,97871.66
2023-03-22T04:19:01.249Z,97875.28
2023-03-22T04:21:05.578Z,97873.34
2023-03-22T04:23:16.444Z,97873.34
2023-03-22T04:25:22.890Z,97871.75
2023-03-22T04:27:36.361Z,97870.75
2023-03-22T04:29:48.648Z,97870.19
2023-03-22T04:32:11.707Z,97867.59
2023-03-22T04:34:18.199Z,97861.66
2023-03-22T04:36:31.164Z,97855.66
2023-03-22T04:38:50.107Z,97862.59
2023-03-22T04:40:57.946Z,97864.25
2023-03-22T04:43:13.744Z,97854.97
2023-03-22T04:45:29.321Z,97860.19
2023-03-22T04:47:36.556Z,97849.78
2023-03-22T04:49:42.628Z,97856.94
2023-03-22T04:51:46.250Z,97854.53
2023-03-22T04:54:18.594Z,97851.31
2023-03-22T04:56:22.280Z,97844.44
2023-03-22T04:58:29.105Z,97842.00
2023-03-22T05:00:32.199Z,97849.88
2023-03-22T05:02:41.089Z,97843.69
2023-03-22T05:04:50.060Z,97844.88
2023-03-22T05:07:15.326Z,97835.53
2023-03-22T05:09:24.269Z,97837.38
2023-03-22T05:11:29.426Z,97829.78
2023-03-22T05:13:47.314Z,97832.56
2023-03-22T05:15:51.867Z,97836.09
2023-03-22T05:17:59.220Z,97825.63
2023-03-22T05:20:09.252Z,97826.72
2023-03-22T05:22:14.423Z,97830.25
2023-03-22T05:24:26.339Z,97823.50
2023-03-22T05:26:29.507Z,97820.81
2023-03-22T05:28:32.790Z,97814.78
2023-03-22T05:30:44.004Z,97817.38
2023-03-22T05:33:06.098Z,97824.22
2023-03-22T05:35:17.347Z,97824.44
2023-03-22T05:37:25.900Z,97821.09
2023-03-22T05:39:33.368Z,97826.19
2023-03-22T05:41:37.060Z,97829.63
2023-03-22T05:43:40.826Z,97827.03
2023-03-22T05:45:45.892Z,97814.03
2023-03-22T05:48:08.359Z,97826.19
2023-03-22T05:50:14.012Z,97832.13
2023-03-22T05:52:17.078Z,97832.75
2023-03-22T05:54:30.373Z,97824.88
2023-03-22T05:56:34.473Z,97836.56
2023-03-22T05:58:42.691Z,97837.56
2023-03-22T06:00:51.473Z,97839.72
2023-03-22T06:02:57.303Z,97836.91
2023-03-22T06:05:00.665Z,97836.59
2023-03-22T06:07:03.776Z,97836.69
2023-03-22T06:09:17.637Z,97837.53
2023-03-22T06:11:24.711Z,97852.97
2023-03-22T06:13:28.687Z,97855.44
2023-03-22T06:15:31.985Z,97858.78
2023-03-22T06:17:40.751Z,97860.19
2023-03-22T06:19:46.251Z,97854.16
2023-03-22T06:21:51.887Z,97863.03
2023-03-22T06:23:57.210Z,97864.06
2023-03-22T06:26:01.248Z,97868.25
2023-03-22T06:28:06.954Z,97873.13
2023-03-22T06:30:13.057Z,97884.91
2023-03-22T06:32:33.711Z,97888.84
2023-03-22T06:34:38.657Z,97889.09
2023-03-22T06:36:42.460Z,97896.06
2023-03-22T06:38:49.773Z,97887.66
2023-03-22T06:40:53.629Z,97900.44
2023-03-22T06:42:56.779Z,97902.53
2023-03-22T06:44:59.910Z,97901.44
2023-03-22T06:47:06.966Z,97909.50
2023-03-22T06:49:41.209Z,97911.38
2023-03-22T06:51:45.847Z,97912.16
2023-03-22T06:53:49.583Z,97919.06
2023-03-22T06:55:55.231Z,97908.66
2023-03-22T06:58:00.226Z,97917.81
2023-03-22T07:00:05.088Z,97914.84
2023-03-22T07:02:08.330Z,97912.00
2023-03-22T07:04:11.442Z,97920.16
2023-03-22T07:06:17.008Z,97907.53
2023-03-22T07:08:24.356Z,97919.03
2023-03-22T07:10:28.928Z,97918.84
2023-03-22T07:12:32.526Z,97918.22
2023-03-22T07:14:40.440Z,97923.03
2023-03-22T07:16:56.880Z,97925.25
2023-03-22T07:19:01.913Z,97925.03
2023-03-22T07:21:05.421Z,97929.69
2023-03-22T07:23:11.544Z,97933.81
2023-03-22T07:25:22.304Z,97918.56
2023-03-22T07:27:31.559Z,97924.00
2023-03-22T07:29:35.567Z,97937.44
2023-03-22T07:31:40.069Z,97920.63
2023-03-22T07:33:48.624Z,97919.78
2023-03-22T07:35:53.874Z,97923.66
2023-03-22T07:37:56.974Z,97922.06
2023-03-22T07:40:08.470Z,97925.00
2023-03-22T07:42:12.684Z,97932.88
2023-03-22T07:44:18.916Z,97932.72
2023-03-22T07:46:38.348Z,97933.06
2023-03-22T07:48:59.839Z,97935.81
2023-03-22T07:51:21.429Z,97936.59
2023-03-22T07:53:24.787Z,97937.75
2023-03-22T07:55:29.370Z,97935.78
2023-03-22T07:57:32.438Z,97934.59
2023-03-22T07:59:39.497Z,97936.75
2023-03-22T08:01:43.600Z,97941.88
2023-03-22T08:04:06.152Z,97932.88
2023-03-22T08:06:25.742Z,97939.25
2023-03-22T08:08:28.783Z,97938.16
2023-03-22T08:10:33.483Z,97938.84
2023-03-22T08:12:37.256Z,97932.44
2023-03-22T08:15:00.584Z,97938.47
2023-03-22T08:17:04.796Z,97935.81
2023-03-22T08:19:07.797Z,97942.69
2023-03-22T08:21:13.302Z,97940.16
2023-03-22T08:23:17.718Z,97936.06
2023-03-22T08:25:42.419Z,97940.81
2023-03-22T08:27:47.272Z,97934.47
2023-03-22T08:29:50.614Z,97941.69
2023-03-22T08:31:54.398Z,97942.50
2023-03-22T08:33:57.527Z,97933.66
2023-03-22T08:36:08.096Z,97943.84
2023-03-22T08:38:17.231Z,97938.09
2023-03-22T08:40:24.036Z,97933.00
2023-03-22T08:42:32.349Z,97926.13
2023-03-22T08:44:35.515Z,97923.84
2023-03-22T08:46:39.769Z,97930.69
2023-03-22T08:48:51.012Z,97926.97
2023-03-22T08:51:06.728Z,97937.00
2023-03-22T08:53:28.610Z,97933.25
2023-03-22T08:55:48.390Z,97927.34
2023-03-22T08:58:10.147Z,97925.72
2023-03-22T09:00:25.526Z,97934.31
2023-03-22T09:02:45.189Z,97924.91
2023-03-22T09:04:48.680Z,97920.91
2023-03-22T09:06:51.761Z,97920.59
2023-03-22T09:08:55.620Z,97920.09
2023-03-22T09:10:59.999Z,97913.34
2023-03-22T09:13:05.137Z,97907.69
2023-03-22T09:15:10.788Z,97898.41
2023-03-22T09:17:20.633Z,97904.56
2023-03-22T09:19:24.767Z,97904.38
2023-03-22T09:21:29.734Z,97899.63
2023-03-22T09:23:43.455Z,97897.97
2023-03-22T09:25:48.057Z,97894.50
2023-03-22T09:27:55.202Z,97896.78
2023-03-22T09:29:58.489Z,97887.03
2023-03-22T09:32:03.052Z,97885.53
2023-03-22T09:34:09.516Z,97899.78
2023-03-22T09:36:12.969Z,97889.22
2023-03-22T09:38:17.231Z,97886.88
2023-03-22T09:40:23.745Z,97880.91
2023-03-22T09:42:33.816Z,97877.75
2023-03-22T09:44:42.779Z,97879.41
2023-03-22T09:46:53.781Z,97882.91
2023-03-22T09:48:59.214Z,97876.94
2023-03-22T09:51:04.179Z,97873.16
2023-03-22T09:53:10.534Z,97876.63
2023-03-22T09:55:19.837Z,97869.00
2023-03-22T09:57:27.508Z,97862.06
2023-03-22T09:59:35.239Z,97861.41
2023-03-22T10:01:43.369Z,97858.25
2023-03-22T10:04:11.374Z,97849.47
2023-03-22T10:06:17.781Z,97851.94
2023-03-22T10:08:47.800Z,97854.78
2023-03-22T10:10:52.676Z,97853.94
2023-03-22T10:13:01.112Z,97841.84
2023-03-22T10:15:07.020Z,97834.75
2023-03-22T10:17:13.350Z,97839.53
2023-03-22T10:19:21.195Z,97832.25
2023-03-22T10:21:24.410Z,97831.28
2023-03-22T10:23:31.821Z,97822.19
2023-03-22T10:25:38.018Z,97819.34
2023-03-22T10:27:41.593Z,97820.38
2023-03-22T10:29:47.268Z,97824.34
2023-03-22T10:31:50.637Z,97813.75
2023-03-22T10:33:57.032Z,97814.72
2023-03-22T10:36:02.213Z,97813.25
2023-03-22T10:38:06.549Z,97815.75
2023-03-22T10:40:16.139Z,97806.81
2023-03-22T10:42:21.772Z,97807.00
2023-03-22T10:44:27.109Z,97798.88
2023-03-22T10:46:33.846Z,97808.13
2023-03-22T10:48:39.392Z,97798.88
2023-03-22T10:50:44.650Z,97802.16
2023-03-22T10:52:51.151Z,97794.22
2023-03-22T10:54:54.268Z,97804.81
2023-03-22T10:56:57.529Z,97798.16
2023-03-22T10:59:00.579Z,97801.50
2023-03-22T11:01:07.333Z,97798.16
2023-03-22T11:03:18.805Z,97800.44
2023-03-22T11:05:24.693Z,97808.88
2023-03-22T11:07:31.458Z,97797.28
2023-03-22T11:09:35.830Z,97795.28
2023-03-22T11:11:46.118Z,97789.78
2023-03-22T11:13:55.621Z,97801.66
2023-03-22T11:16:02.514Z,97792.72
2023-03-22T11:18:07.735Z,97794.56
2023-03-22T11:20:16.988Z,97795.66
2023-03-22T11:22:24.900Z,97799.00
2023-03-22T11:24:29.446Z,97800.56
2023-03-22T11:26:38.819Z,97781.94
2023-03-22T11:28:49.021Z,97784.28
2023-03-22T11:31:01.136Z,97775.53
2023-03-22T11:33:18.597Z,97773.84
2023-03-22T11:35:23.858Z,97775.47
2023-03-22T11:37:26.969Z,97776.91
2023-03-22T11:39:30.784Z,97771.94
2023-03-22T11:41:36.467Z,97777.91
2023-03-22T11:43:42.291Z,97775.13
2023-03-22T11:45:46.002Z,97767.81
2023-03-22T11:47:49.210Z,97763.78
2023-03-22T11:49:54.541Z,97763.69
2023-03-22T11:51:57.602Z,97763.69
2023-03-22T11:54:06.290Z,97766.75
2023-03-22T11:56:12.092Z,97765.28
2023-03-22T11:58:28.054Z,97748.59
2023-03-22T12:00:33.463Z,97750.78
2023-03-22T12:02:40.092Z,97747.97
2023-03-22T12:04:45.441Z,97742.06
2023-03-22T12:06:49.043Z,97739.59
2023-03-22T12:08:55.323Z,97731.81
2023-03-22T12:11:03.277Z,97728.47
2023-03-22T12:13:10.841Z,97731.38
2023-03-22T12:15:19.329Z,97722.69
2023-03-22T12:17:30.256Z,97725.66
2023-03-22T12:19:48.422Z,97720.53
2023-03-22T12:21:52.916Z,97720.38
2023-03-22T12:24:02.438Z,97713.72
2023-03-22T12:26:08.180Z,97712.81
2023-03-22T12:28:14.732Z,97711.72
2023-03-22T12:30:21.530Z,97707.88
2023-03-22T12:32:27.559Z,97698.41
2023-03-22T12:34:37.235Z,97702.81
2023-03-22T12:36:42.940Z,97701.13
2023-03-22T12:38:48.674Z,97707.41
2023-03-22T12:40:52.876Z,97701.91
2023-03-22T12:43:07.309Z,97711.00
2023-03-22T12:45:14.228Z,97698.03
2023-03-22T12:47:23.973Z,97703.25
2023-03-22T12:49:29.875Z,97703.84
2023-03-22T12:51:32.901Z,97697.84
2023-03-22T12:53:42.336Z,97687.75
2023-03-22T12:55:46.626Z,97683.47
2023-03-22T12:57:52.388Z,97686.19
2023-03-22T12:59:57.695Z,97680.28
2023-03-22T13:02:04.826Z,97677.66
2023-03-22T13:04:50.896Z,97679.50
2023-03-22T13:06:57.506Z,97676.72
2023-03-22T13:09:18.929Z,97680.72
2023-03-22T13:11:25.617Z,97676.06
2023-03-22T13:13:42.417Z,97678.88
2023-03-22T13:16:00.872Z,97669.78
2023-03-22T13:18:04.453Z,97673.22
2023-03-22T13:20:30.860Z,97672.97
2023-03-22T13:23:01.484Z,97662.03
2023-03-22T13:25:17.180Z,97664.16
2023-03-22T13:27:20.468Z,97655.22
2023-03-22T13:29:25.423Z,97655.53
2023-03-22T13:31:38.819Z,97652.56
2023-03-22T13:33:42.076Z,97652.56
2023-03-22T13:35:51.285Z,97658.22
2023-03-22T13:37:55.408Z,97644.69
2023-03-22T13:40:02.900Z,97643.69
2023-03-22T13:42:17.066Z,97637.78
2023-03-22T13:44:22.419Z,97632.25
2023-03-22T13:46:46.728Z,97634.41
2023-03-22T13:48:56.139Z,97625.94
2023-03-22T13:51:10.693Z,97625.91
2023-03-22T13:53:17.085Z,97622.16
2023-03-22T13:55:42.832Z,97613.53
2023-03-22T13:57:49.239Z,97615.13
2023-03-22T14:00:12.164Z,97618.72
2023-03-22T14:02:19.497Z,97616.25
2023-03-22T14:04:26.310Z,97606.53
2023-03-22T14:06:33.773Z,97614.19
2023-03-22T14:08:37.937Z,97604.28
2023-03-22T14:10:43.382Z,97605.28
2023-03-22T14:12:50.987Z,97602.63
2023-03-22T14:14:57.417Z,97596.69
2023-03-22T14:17:04.847Z,97592.84
2023-03-22T14:19:09.929Z,97588.31
2023-03-22T14:21:15.114Z,97588.63
